sensor_id;sensor_type;location;lat;lon;timestamp;temperature;humidity
45339;DHT22;31071;51.478;5.710;2023-02-28T00:00:44;-1.10;99.90
45339;DHT22;31071;51.478;5.710;2023-02-28T00:03:09;-1.00;99.90
45339;DHT22;31071;51.478;5.710;2023-02-28T00:05:35;0.40;99.90
45339;DHT22;31071;51.478;5.710;2023-02-28T00:08:01;0.00;99.90
45339;DHT22;31071;51.478;5.710;2023-02-28T00:10:28;0.10;99.90
45339;DHT22;31071;51.478;5.710;2023-02-28T00:12:56;-1.20;99.90
45339;DHT22;31071;51.478;5.710;2023-02-28T00:15:24;-1.00;99.90
45339;DHT22;31071;51.478;5.710;2023-02-28T00:17:51;-1.20;99.90
45339;DHT22;31071;51.478;5.710;2023-02-28T00:20:18;-0.80;99.90
45339;DHT22;31071;51.478;5.710;2023-02-28T00:22:47;-2.50;99.90
45339;DHT22;31071;51.478;5.710;2023-02-28T00:25:16;0.60;99.90
45339;DHT22;31071;51.478;5.710;2023-02-28T00:27:42;-1.30;99.90
45339;DHT22;31071;51.478;5.710;2023-02-28T00:30:11;-1.10;99.90
45339;DHT22;31071;51.478;5.710;2023-02-28T00:32:37;-1.20;99.90
45339;DHT22;31071;51.478;5.710;2023-02-28T00:35:04;-0.60;99.90
45339;DHT22;31071;51.478;5.710;2023-02-28T00:37:30;-1.20;99.90
45339;DHT22;31071;51.478;5.710;2023-02-28T00:39:56;-0.90;99.90
45339;DHT22;31071;51.478;5.710;2023-02-28T00:42:21;-1.20;99.90
45339;DHT22;31071;51.478;5.710;2023-02-28T00:44:47;-1.10;99.90
45339;DHT22;31071;51.478;5.710;2023-02-28T00:47:13;-1.20;99.90
45339;DHT22;31071;51.478;5.710;2023-02-28T00:49:40;-1.30;99.90
45339;DHT22;31071;51.478;5.710;2023-02-28T00:52:05;-1.20;99.90
45339;DHT22;31071;51.478;5.710;2023-02-28T00:54:31;-1.00;99.90
45339;DHT22;31071;51.478;5.710;2023-02-28T00:56:57;-1.40;99.90
45339;DHT22;31071;51.478;5.710;2023-02-28T00:59:22;-1.40;99.90
45339;DHT22;31071;51.478;5.710;2023-02-28T01:01:48;-1.40;99.90
45339;DHT22;31071;51.478;5.710;2023-02-28T01:04:14;-1.30;99.90
45339;DHT22;31071;51.478;5.710;2023-02-28T01:06:40;-0.80;99.90
45339;DHT22;31071;51.478;5.710;2023-02-28T01:09:07;-1.30;99.90
45339;DHT22;31071;51.478;5.710;2023-02-28T01:11:33;-1.30;99.90
45339;DHT22;31071;51.478;5.710;2023-02-28T01:13:59;-1.40;99.90
45339;DHT22;31071;51.478;5.710;2023-02-28T01:16:25;-1.40;99.90
45339;DHT22;31071;51.478;5.710;2023-02-28T01:18:52;-1.40;99.90
45339;DHT22;31071;51.478;5.710;2023-02-28T01:21:19;-1.40;99.90
45339;DHT22;31071;51.478;5.710;2023-02-28T01:23:46;-1.50;99.90
45339;DHT22;31071;51.478;5.710;2023-02-28T01:26:14;-1.60;99.90
45339;DHT22;31071;51.478;5.710;2023-02-28T01:28:40;-1.30;99.90
45339;DHT22;31071;51.478;5.710;2023-02-28T01:31:06;-1.50;99.90
45339;DHT22;31071;51.478;5.710;2023-02-28T01:33:32;-1.50;99.90
45339;DHT22;31071;51.478;5.710;2023-02-28T01:36:03;-0.90;99.90
45339;DHT22;31071;51.478;5.710;2023-02-28T01:38:30;-1.60;99.90
45339;DHT22;31071;51.478;5.710;2023-02-28T01:40:56;-1.60;99.90
45339;DHT22;31071;51.478;5.710;2023-02-28T01:43:28;-1.60;99.90
45339;DHT22;31071;51.478;5.710;2023-02-28T01:45:55;-1.60;99.90
45339;DHT22;31071;51.478;5.710;2023-02-28T01:48:27;-1.50;99.90
45339;DHT22;31071;51.478;5.710;2023-02-28T01:50:55;-1.30;99.90
45339;DHT22;31071;51.478;5.710;2023-02-28T01:53:27;-1.60;99.90
45339;DHT22;31071;51.478;5.710;2023-02-28T01:55:56;-1.90;99.90
45339;DHT22;31071;51.478;5.710;2023-02-28T01:58:22;-0.50;99.90
45339;DHT22;31071;51.478;5.710;2023-02-28T02:00:48;-1.60;99.90
45339;DHT22;31071;51.478;5.710;2023-02-28T02:03:16;-1.20;99.90
45339;DHT22;31071;51.478;5.710;2023-02-28T02:05:53;-0.10;99.90
45339;DHT22;31071;51.478;5.710;2023-02-28T02:08:24;-1.60;99.90
45339;DHT22;31071;51.478;5.710;2023-02-28T02:10:54;-1.50;99.90
45339;DHT22;31071;51.478;5.710;2023-02-28T02:22:32;-1.40;99.90
45339;DHT22;31071;51.478;5.710;2023-02-28T02:25:32;-1.50;99.90
45339;DHT22;31071;51.478;5.710;2023-02-28T02:33:41;-1.50;99.90
45339;DHT22;31071;51.478;5.710;2023-02-28T02:36:25;-1.50;99.90
45339;DHT22;31071;51.478;5.710;2023-02-28T02:39:04;-1.50;99.90
45339;DHT22;31071;51.478;5.710;2023-02-28T02:41:51;-1.50;99.90
45339;DHT22;31071;51.478;5.710;2023-02-28T02:46:55;-1.50;99.90
45339;DHT22;31071;51.478;5.710;2023-02-28T02:49:30;-1.50;99.90
45339;DHT22;31071;51.478;5.710;2023-02-28T02:52:00;-1.50;99.90
45339;DHT22;31071;51.478;5.710;2023-02-28T02:54:29;-1.60;99.90
45339;DHT22;31071;51.478;5.710;2023-02-28T02:57:00;-1.60;99.90
45339;DHT22;31071;51.478;5.710;2023-02-28T02:59:29;-1.00;99.90
45339;DHT22;31071;51.478;5.710;2023-02-28T03:02:01;-1.60;99.90
45339;DHT22;31071;51.478;5.710;2023-02-28T03:04:32;-1.70;99.90
45339;DHT22;31071;51.478;5.710;2023-02-28T03:06:59;-1.60;99.90
45339;DHT22;31071;51.478;5.710;2023-02-28T03:09:25;-1.70;99.90
45339;DHT22;31071;51.478;5.710;2023-02-28T03:11:53;-1.70;99.90
45339;DHT22;31071;51.478;5.710;2023-02-28T03:17:47;-1.60;99.90
45339;DHT22;31071;51.478;5.710;2023-02-28T03:20:35;-1.60;99.90
45339;DHT22;31071;51.478;5.710;2023-02-28T03:23:03;-1.50;99.90
45339;DHT22;31071;51.478;5.710;2023-02-28T03:28:43;-1.30;99.90
45339;DHT22;31071;51.478;5.710;2023-02-28T03:31:21;-1.20;99.90
45339;DHT22;31071;51.478;5.710;2023-02-28T03:33:54;-0.80;99.90
45339;DHT22;31071;51.478;5.710;2023-02-28T03:36:30;-0.80;99.90
45339;DHT22;31071;51.478;5.710;2023-02-28T03:39:08;-1.00;99.90
45339;DHT22;31071;51.478;5.710;2023-02-28T03:41:59;-1.00;99.90
45339;DHT22;31071;51.478;5.710;2023-02-28T03:44:39;-0.90;99.90
45339;DHT22;31071;51.478;5.710;2023-02-28T03:47:12;-0.80;99.90
45339;DHT22;31071;51.478;5.710;2023-02-28T03:49:47;-0.80;99.90
45339;DHT22;31071;51.478;5.710;2023-02-28T03:52:18;-0.70;99.90
45339;DHT22;31071;51.478;5.710;2023-02-28T03:54:48;-0.70;99.90
45339;DHT22;31071;51.478;5.710;2023-02-28T04:00:06;-0.70;99.90
45339;DHT22;31071;51.478;5.710;2023-02-28T04:02:32;-0.60;99.90
45339;DHT22;31071;51.478;5.710;2023-02-28T04:05:00;-0.60;99.90
45339;DHT22;31071;51.478;5.710;2023-02-28T04:07:30;1.00;99.90
45339;DHT22;31071;51.478;5.710;2023-02-28T04:09:56;0.60;99.90
45339;DHT22;31071;51.478;5.710;2023-02-28T04:12:22;-0.50;99.90
45339;DHT22;31071;51.478;5.710;2023-02-28T04:14:50;-0.40;99.90
45339;DHT22;31071;51.478;5.710;2023-02-28T04:17:16;-0.30;99.90
45339;DHT22;31071;51.478;5.710;2023-02-28T04:19:42;-0.50;99.90
45339;DHT22;31071;51.478;5.710;2023-02-28T04:22:08;1.40;99.90
45339;DHT22;31071;51.478;5.710;2023-02-28T04:24:35;-0.20;99.90
45339;DHT22;31071;51.478;5.710;2023-02-28T04:27:01;-0.10;99.90
45339;DHT22;31071;51.478;5.710;2023-02-28T04:29:31;-0.20;99.90
45339;DHT22;31071;51.478;5.710;2023-02-28T04:31:58;-0.30;99.90
45339;DHT22;31071;51.478;5.710;2023-02-28T04:34:26;1.50;99.90
45339;DHT22;31071;51.478;5.710;2023-02-28T04:36:54;-0.10;99.90
45339;DHT22;31071;51.478;5.710;2023-02-28T04:39:24;-0.40;99.90
45339;DHT22;31071;51.478;5.710;2023-02-28T04:41:50;0.00;99.90
45339;DHT22;31071;51.478;5.710;2023-02-28T04:44:16;0.30;99.90
45339;DHT22;31071;51.478;5.710;2023-02-28T04:46:42;0.40;99.90
45339;DHT22;31071;51.478;5.710;2023-02-28T04:49:09;1.00;99.90
45339;DHT22;31071;51.478;5.710;2023-02-28T04:51:36;1.50;99.90
45339;DHT22;31071;51.478;5.710;2023-02-28T04:54:02;0.60;99.90
45339;DHT22;31071;51.478;5.710;2023-02-28T04:56:27;-0.50;99.90
45339;DHT22;31071;51.478;5.710;2023-02-28T04:58:53;1.30;99.90
45339;DHT22;31071;51.478;5.710;2023-02-28T05:01:33;-0.20;99.90
45339;DHT22;31071;51.478;5.710;2023-02-28T05:04:01;-0.20;99.90
45339;DHT22;31071;51.478;5.710;2023-02-28T05:06:28;-0.40;99.90
45339;DHT22;31071;51.478;5.710;2023-02-28T05:08:55;-0.40;99.90
45339;DHT22;31071;51.478;5.710;2023-02-28T05:11:29;-0.20;99.90
45339;DHT22;31071;51.478;5.710;2023-02-28T05:13:59;-0.30;99.90
45339;DHT22;31071;51.478;5.710;2023-02-28T05:16:24;-0.30;99.90
45339;DHT22;31071;51.478;5.710;2023-02-28T05:18:50;1.20;99.90
45339;DHT22;31071;51.478;5.710;2023-02-28T05:21:31;0.20;99.90
45339;DHT22;31071;51.478;5.710;2023-02-28T05:24:00;-0.30;99.90
45339;DHT22;31071;51.478;5.710;2023-02-28T05:26:26;-0.40;99.90
45339;DHT22;31071;51.478;5.710;2023-02-28T05:28:52;-0.10;99.90
45339;DHT22;31071;51.478;5.710;2023-02-28T05:31:17;-0.30;99.90
45339;DHT22;31071;51.478;5.710;2023-02-28T05:33:43;1.20;99.90
45339;DHT22;31071;51.478;5.710;2023-02-28T05:36:09;1.20;99.90
45339;DHT22;31071;51.478;5.710;2023-02-28T05:38:34;-0.10;99.90
45339;DHT22;31071;51.478;5.710;2023-02-28T05:41:04;1.70;99.90
45339;DHT22;31071;51.478;5.710;2023-02-28T05:43:30;1.10;99.90
45339;DHT22;31071;51.478;5.710;2023-02-28T05:45:56;1.50;99.90
45339;DHT22;31071;51.478;5.710;2023-02-28T05:48:21;0.80;99.90
45339;DHT22;31071;51.478;5.710;2023-02-28T05:50:47;0.50;99.90
45339;DHT22;31071;51.478;5.710;2023-02-28T05:53:12;-0.20;99.90
45339;DHT22;31071;51.478;5.710;2023-02-28T05:55:38;1.30;99.90
45339;DHT22;31071;51.478;5.710;2023-02-28T05:58:04;1.00;99.90
45339;DHT22;31071;51.478;5.710;2023-02-28T06:00:29;0.80;99.90
45339;DHT22;31071;51.478;5.710;2023-02-28T06:02:55;-0.10;99.90
45339;DHT22;31071;51.478;5.710;2023-02-28T06:05:23;-0.40;99.90
45339;DHT22;31071;51.478;5.710;2023-02-28T06:07:49;-0.10;99.90
45339;DHT22;31071;51.478;5.710;2023-02-28T06:10:15;-0.50;99.90
45339;DHT22;31071;51.478;5.710;2023-02-28T06:12:41;-0.40;99.90
45339;DHT22;31071;51.478;5.710;2023-02-28T06:15:11;0.30;99.90
45339;DHT22;31071;51.478;5.710;2023-02-28T06:17:38;-0.40;99.90
45339;DHT22;31071;51.478;5.710;2023-02-28T06:20:04;0.00;99.90
45339;DHT22;31071;51.478;5.710;2023-02-28T06:22:32;-0.50;99.90
45339;DHT22;31071;51.478;5.710;2023-02-28T06:24:58;-0.10;99.90
45339;DHT22;31071;51.478;5.710;2023-02-28T06:27:24;0.60;99.90
45339;DHT22;31071;51.478;5.710;2023-02-28T06:29:54;0.50;99.90
45339;DHT22;31071;51.478;5.710;2023-02-28T06:32:21;-0.80;99.90
45339;DHT22;31071;51.478;5.710;2023-02-28T06:34:47;0.20;99.90
45339;DHT22;31071;51.478;5.710;2023-02-28T06:37:12;-1.10;99.90
45339;DHT22;31071;51.478;5.710;2023-02-28T06:39:56;0.60;99.90
45339;DHT22;31071;51.478;5.710;2023-02-28T06:42:24;0.10;99.90
45339;DHT22;31071;51.478;5.710;2023-02-28T06:44:56;-0.90;99.90
45339;DHT22;31071;51.478;5.710;2023-02-28T06:47:34;-0.90;99.90
45339;DHT22;31071;51.478;5.710;2023-02-28T06:50:00;-0.90;99.90
45339;DHT22;31071;51.478;5.710;2023-02-28T06:52:28;0.40;99.90
45339;DHT22;31071;51.478;5.710;2023-02-28T06:54:56;-1.10;99.90
45339;DHT22;31071;51.478;5.710;2023-02-28T06:57:29;-1.00;99.90
45339;DHT22;31071;51.478;5.710;2023-02-28T06:59:59;-1.20;99.90
45339;DHT22;31071;51.478;5.710;2023-02-28T07:02:25;-1.20;99.90
45339;DHT22;31071;51.478;5.710;2023-02-28T07:04:51;-0.90;99.90
45339;DHT22;31071;51.478;5.710;2023-02-28T07:07:18;1.00;99.90
45339;DHT22;31071;51.478;5.710;2023-02-28T07:09:46;-0.70;99.90
45339;DHT22;31071;51.478;5.710;2023-02-28T07:12:12;-0.70;99.90
45339;DHT22;31071;51.478;5.710;2023-02-28T07:14:38;-0.70;99.90
45339;DHT22;31071;51.478;5.710;2023-02-28T07:17:03;1.20;99.90
45339;DHT22;31071;51.478;5.710;2023-02-28T07:19:29;1.30;99.90
45339;DHT22;31071;51.478;5.710;2023-02-28T07:21:55;1.70;99.90
45339;DHT22;31071;51.478;5.710;2023-02-28T07:24:20;3.10;99.90
45339;DHT22;31071;51.478;5.710;2023-02-28T07:26:47;3.70;99.90
45339;DHT22;31071;51.478;5.710;2023-02-28T07:29:13;4.30;99.90
45339;DHT22;31071;51.478;5.710;2023-02-28T07:31:41;2.40;99.90
45339;DHT22;31071;51.478;5.710;2023-02-28T07:34:07;2.60;99.90
45339;DHT22;31071;51.478;5.710;2023-02-28T07:36:32;2.90;99.90
45339;DHT22;31071;51.478;5.710;2023-02-28T07:38:58;3.10;99.80
45339;DHT22;31071;51.478;5.710;2023-02-28T07:41:24;4.00;98.00
45339;DHT22;31071;51.478;5.710;2023-02-28T07:43:53;3.70;98.40
45339;DHT22;31071;51.478;5.710;2023-02-28T07:46:20;2.70;99.50
45339;DHT22;31071;51.478;5.710;2023-02-28T07:48:46;4.40;98.60
45339;DHT22;31071;51.478;5.710;2023-02-28T07:51:12;4.50;98.70
45339;DHT22;31071;51.478;5.710;2023-02-28T07:53:38;4.30;98.20
45339;DHT22;31071;51.478;5.710;2023-02-28T07:56:04;3.40;99.50
45339;DHT22;31071;51.478;5.710;2023-02-28T07:58:30;2.20;99.80
45339;DHT22;31071;51.478;5.710;2023-02-28T08:00:56;3.60;99.90
45339;DHT22;31071;51.478;5.710;2023-02-28T08:03:23;2.30;99.80
45339;DHT22;31071;51.478;5.710;2023-02-28T08:05:49;3.40;98.90
45339;DHT22;31071;51.478;5.710;2023-02-28T08:08:16;2.50;98.50
45339;DHT22;31071;51.478;5.710;2023-02-28T08:10:42;2.40;98.20
45339;DHT22;31071;51.478;5.710;2023-02-28T08:13:08;2.00;96.20
45339;DHT22;31071;51.478;5.710;2023-02-28T08:15:42;1.90;98.00
45339;DHT22;31071;51.478;5.710;2023-02-28T08:18:11;3.20;98.70
45339;DHT22;31071;51.478;5.710;2023-02-28T08:20:36;3.00;98.40
45339;DHT22;31071;51.478;5.710;2023-02-28T08:23:02;3.20;97.00
45339;DHT22;31071;51.478;5.710;2023-02-28T08:25:28;4.20;98.00
45339;DHT22;31071;51.478;5.710;2023-02-28T08:27:54;2.70;96.40
45339;DHT22;31071;51.478;5.710;2023-02-28T08:30:19;3.00;95.20
45339;DHT22;31071;51.478;5.710;2023-02-28T08:32:45;3.20;94.30
45339;DHT22;31071;51.478;5.710;2023-02-28T08:35:11;3.40;95.10
45339;DHT22;31071;51.478;5.710;2023-02-28T08:37:37;2.80;94.50
45339;DHT22;31071;51.478;5.710;2023-02-28T08:40:04;3.10;93.50
45339;DHT22;31071;51.478;5.710;2023-02-28T08:42:31;3.30;92.80
45339;DHT22;31071;51.478;5.710;2023-02-28T08:44:57;4.20;91.90
45339;DHT22;31071;51.478;5.710;2023-02-28T08:47:23;4.00;90.90
45339;DHT22;31071;51.478;5.710;2023-02-28T08:49:49;6.30;90.00
45339;DHT22;31071;51.478;5.710;2023-02-28T08:52:14;6.50;84.00
45339;DHT22;31071;51.478;5.710;2023-02-28T08:54:40;7.00;81.00
45339;DHT22;31071;51.478;5.710;2023-02-28T08:57:06;5.20;80.10
45339;DHT22;31071;51.478;5.710;2023-02-28T08:59:31;5.20;78.90
45339;DHT22;31071;51.478;5.710;2023-02-28T09:01:57;5.30;80.50
45339;DHT22;31071;51.478;5.710;2023-02-28T09:04:23;6.70;80.00
45339;DHT22;31071;51.478;5.710;2023-02-28T09:06:48;9.10;69.30
45339;DHT22;31071;51.478;5.710;2023-02-28T09:09:15;11.30;61.80
45339;DHT22;31071;51.478;5.710;2023-02-28T09:11:41;14.10;54.90
45339;DHT22;31071;51.478;5.710;2023-02-28T09:14:07;15.80;48.60
45339;DHT22;31071;51.478;5.710;2023-02-28T09:16:33;16.30;46.20
45339;DHT22;31071;51.478;5.710;2023-02-28T09:18:59;15.20;42.30
45339;DHT22;31071;51.478;5.710;2023-02-28T09:21:24;17.40;41.80
45339;DHT22;31071;51.478;5.710;2023-02-28T09:23:50;15.20;40.00
45339;DHT22;31071;51.478;5.710;2023-02-28T09:26:25;15.10;41.10
45339;DHT22;31071;51.478;5.710;2023-02-28T09:28:52;15.40;38.90
45339;DHT22;31071;51.478;5.710;2023-02-28T09:31:21;15.80;40.90
45339;DHT22;31071;51.478;5.710;2023-02-28T09:33:48;16.50;40.60
45339;DHT22;31071;51.478;5.710;2023-02-28T09:36:17;17.40;39.30
45339;DHT22;31071;51.478;5.710;2023-02-28T09:38:44;16.50;38.10
45339;DHT22;31071;51.478;5.710;2023-02-28T09:41:24;18.00;37.20
45339;DHT22;31071;51.478;5.710;2023-02-28T09:43:56;16.90;36.50
45339;DHT22;31071;51.478;5.710;2023-02-28T09:46:30;17.00;36.10
45339;DHT22;31071;51.478;5.710;2023-02-28T09:49:00;17.70;35.80
45339;DHT22;31071;51.478;5.710;2023-02-28T09:51:51;16.40;33.90
45339;DHT22;31071;51.478;5.710;2023-02-28T09:54:21;15.50;36.90
45339;DHT22;31071;51.478;5.710;2023-02-28T09:59:59;17.50;33.70
45339;DHT22;31071;51.478;5.710;2023-02-28T10:02:46;18.90;35.60
45339;DHT22;31071;51.478;5.710;2023-02-28T10:05:16;17.10;33.00
45339;DHT22;31071;51.478;5.710;2023-02-28T10:08:08;16.70;33.30
45339;DHT22;31071;51.478;5.710;2023-02-28T10:10:46;17.60;34.00
45339;DHT22;31071;51.478;5.710;2023-02-28T10:13:25;17.60;33.20
45339;DHT22;31071;51.478;5.710;2023-02-28T10:15:59;17.60;34.50
45339;DHT22;31071;51.478;5.710;2023-02-28T10:18:52;17.80;32.80
45339;DHT22;31071;51.478;5.710;2023-02-28T10:21:30;18.20;33.40
45339;DHT22;31071;51.478;5.710;2023-02-28T10:24:03;17.20;31.50
45339;DHT22;31071;51.478;5.710;2023-02-28T10:26:31;16.50;32.70
45339;DHT22;31071;51.478;5.710;2023-02-28T10:28:58;16.30;34.60
45339;DHT22;31071;51.478;5.710;2023-02-28T10:31:24;16.30;34.20
45339;DHT22;31071;51.478;5.710;2023-02-28T10:33:49;18.60;34.50
45339;DHT22;31071;51.478;5.710;2023-02-28T10:36:18;18.70;34.10
45339;DHT22;31071;51.478;5.710;2023-02-28T10:38:45;15.90;34.00
45339;DHT22;31071;51.478;5.710;2023-02-28T10:41:26;16.30;34.80
45339;DHT22;31071;51.478;5.710;2023-02-28T10:44:15;16.80;31.60
45339;DHT22;31071;51.478;5.710;2023-02-28T10:46:43;17.50;34.40
45339;DHT22;31071;51.478;5.710;2023-02-28T10:49:28;18.00;32.90
45339;DHT22;31071;51.478;5.710;2023-02-28T10:51:59;17.60;32.60
45339;DHT22;31071;51.478;5.710;2023-02-28T10:54:32;19.20;33.10
45339;DHT22;31071;51.478;5.710;2023-02-28T10:57:12;18.90;32.60
45339;DHT22;31071;51.478;5.710;2023-02-28T10:59:39;18.80;32.40
45339;DHT22;31071;51.478;5.710;2023-02-28T11:02:29;18.50;32.80
45339;DHT22;31071;51.478;5.710;2023-02-28T11:04:56;17.70;30.80
45339;DHT22;31071;51.478;5.710;2023-02-28T11:07:23;17.70;32.60
45339;DHT22;31071;51.478;5.710;2023-02-28T11:09:52;18.30;30.60
45339;DHT22;31071;51.478;5.710;2023-02-28T11:12:28;17.20;32.70
45339;DHT22;31071;51.478;5.710;2023-02-28T11:14:57;18.70;31.30
45339;DHT22;31071;51.478;5.710;2023-02-28T11:17:28;16.40;31.70
45339;DHT22;31071;51.478;5.710;2023-02-28T11:20:01;15.60;33.60
45339;DHT22;31071;51.478;5.710;2023-02-28T11:22:32;15.90;35.10
45339;DHT22;31071;51.478;5.710;2023-02-28T11:25:21;16.10;32.70
45339;DHT22;31071;51.478;5.710;2023-02-28T11:27:53;16.70;33.20
45339;DHT22;31071;51.478;5.710;2023-02-28T11:30:37;18.50;33.80
45339;DHT22;31071;51.478;5.710;2023-02-28T11:35:52;17.50;30.90
45339;DHT22;31071;51.478;5.710;2023-02-28T11:38:19;16.40;32.20
45339;DHT22;31071;51.478;5.710;2023-02-28T11:46:34;15.20;34.70
45339;DHT22;31071;51.478;5.710;2023-02-28T11:49:13;15.60;35.30
45339;DHT22;31071;51.478;5.710;2023-02-28T11:57:32;16.60;32.40
45339;DHT22;31071;51.478;5.710;2023-02-28T12:00:31;15.80;33.00
45339;DHT22;31071;51.478;5.710;2023-02-28T12:03:26;15.80;33.70
45339;DHT22;31071;51.478;5.710;2023-02-28T12:06:23;16.10;32.80
45339;DHT22;31071;51.478;5.710;2023-02-28T12:09:15;15.60;33.00
45339;DHT22;31071;51.478;5.710;2023-02-28T12:20:36;13.50;36.80
45339;DHT22;31071;51.478;5.710;2023-02-28T12:28:48;16.50;33.50
45339;DHT22;31071;51.478;5.710;2023-02-28T12:31:24;16.60;33.10
45339;DHT22;31071;51.478;5.710;2023-02-28T12:33:53;16.50;33.60
45339;DHT22;31071;51.478;5.710;2023-02-28T12:36:21;16.10;36.00
45339;DHT22;31071;51.478;5.710;2023-02-28T12:42:03;17.60;33.50
45339;DHT22;31071;51.478;5.710;2023-02-28T12:45:31;17.00;32.40
45339;DHT22;31071;51.478;5.710;2023-02-28T12:48:06;16.60;33.60
45339;DHT22;31071;51.478;5.710;2023-02-28T12:50:34;16.90;33.50
45339;DHT22;31071;51.478;5.710;2023-02-28T12:53:27;17.10;32.90
45339;DHT22;31071;51.478;5.710;2023-02-28T12:56:12;15.70;33.90
45339;DHT22;31071;51.478;5.710;2023-02-28T12:58:49;15.00;36.10
45339;DHT22;31071;51.478;5.710;2023-02-28T13:02:24;15.10;35.10
45339;DHT22;31071;51.478;5.710;2023-02-28T13:10:01;13.70;38.90
45339;DHT22;31071;51.478;5.710;2023-02-28T13:12:29;14.50;37.50
45339;DHT22;31071;51.478;5.710;2023-02-28T13:15:19;15.00;35.10
45339;DHT22;31071;51.478;5.710;2023-02-28T13:17:51;15.30;35.80
45339;DHT22;31071;51.478;5.710;2023-02-28T13:20:20;16.00;33.90
45339;DHT22;31071;51.478;5.710;2023-02-28T13:22:50;16.50;34.10
45339;DHT22;31071;51.478;5.710;2023-02-28T13:28:13;15.90;33.90
45339;DHT22;31071;51.478;5.710;2023-02-28T13:31:00;15.70;33.20
45339;DHT22;31071;51.478;5.710;2023-02-28T13:33:36;15.90;33.20
45339;DHT22;31071;51.478;5.710;2023-02-28T13:36:32;15.00;34.90
45339;DHT22;31071;51.478;5.710;2023-02-28T13:38:59;15.20;34.00
45339;DHT22;31071;51.478;5.710;2023-02-28T13:49:30;17.10;33.00
45339;DHT22;31071;51.478;5.710;2023-02-28T13:57:46;17.10;34.80
45339;DHT22;31071;51.478;5.710;2023-02-28T14:06:26;16.30;34.40
45339;DHT22;31071;51.478;5.710;2023-02-28T14:09:06;15.80;36.70
45339;DHT22;31071;51.478;5.710;2023-02-28T14:11:42;16.40;36.60
45339;DHT22;31071;51.478;5.710;2023-02-28T14:14:10;16.50;35.20
45339;DHT22;31071;51.478;5.710;2023-02-28T14:16:55;17.30;34.40
45339;DHT22;31071;51.478;5.710;2023-02-28T14:19:24;15.60;35.20
45339;DHT22;31071;51.478;5.710;2023-02-28T14:22:19;15.60;37.00
45339;DHT22;31071;51.478;5.710;2023-02-28T14:28:14;14.60;35.70
45339;DHT22;31071;51.478;5.710;2023-02-28T14:31:04;13.70;38.20
45339;DHT22;31071;51.478;5.710;2023-02-28T14:36:25;14.10;36.30
45339;DHT22;31071;51.478;5.710;2023-02-28T14:38:54;13.30;38.10
45339;DHT22;31071;51.478;5.710;2023-02-28T14:41:33;12.30;39.20
45339;DHT22;31071;51.478;5.710;2023-02-28T14:44:21;12.10;41.00
45339;DHT22;31071;51.478;5.710;2023-02-28T14:46:52;11.80;40.50
45339;DHT22;31071;51.478;5.710;2023-02-28T14:52:20;11.50;41.60
45339;DHT22;31071;51.478;5.710;2023-02-28T14:54:57;10.90;41.70
45339;DHT22;31071;51.478;5.710;2023-02-28T14:57:30;10.40;42.70
45339;DHT22;31071;51.478;5.710;2023-02-28T15:02:29;12.40;45.80
45339;DHT22;31071;51.478;5.710;2023-02-28T15:07:45;9.70;44.40
45339;DHT22;31071;51.478;5.710;2023-02-28T15:10:26;11.40;46.80
45339;DHT22;31071;51.478;5.710;2023-02-28T15:13:02;9.70;45.10
45339;DHT22;31071;51.478;5.710;2023-02-28T15:15:50;9.40;45.40
45339;DHT22;31071;51.478;5.710;2023-02-28T15:18:36;9.50;45.30
45339;DHT22;31071;51.478;5.710;2023-02-28T15:21:27;9.70;44.50
45339;DHT22;31071;51.478;5.710;2023-02-28T15:23:56;9.80;44.90
45339;DHT22;31071;51.478;5.710;2023-02-28T15:26:27;10.00;44.70
45339;DHT22;31071;51.478;5.710;2023-02-28T15:29:10;10.90;44.30
45339;DHT22;31071;51.478;5.710;2023-02-28T15:31:44;11.40;45.80
45339;DHT22;31071;51.478;5.710;2023-02-28T15:34:25;9.60;45.20
45339;DHT22;31071;51.478;5.710;2023-02-28T15:36:52;10.90;46.50
45339;DHT22;31071;51.478;5.710;2023-02-28T15:39:22;9.20;46.60
45339;DHT22;31071;51.478;5.710;2023-02-28T15:41:48;9.20;46.10
45339;DHT22;31071;51.478;5.710;2023-02-28T15:44:24;8.80;46.00
45339;DHT22;31071;51.478;5.710;2023-02-28T15:47:03;8.90;47.10
45339;DHT22;31071;51.478;5.710;2023-02-28T15:49:40;8.70;47.10
45339;DHT22;31071;51.478;5.710;2023-02-28T15:52:46;8.60;48.00
45339;DHT22;31071;51.478;5.710;2023-02-28T15:55:24;9.60;48.40
45339;DHT22;31071;51.478;5.710;2023-02-28T15:57:53;8.40;47.80
45339;DHT22;31071;51.478;5.710;2023-02-28T16:00:25;8.30;48.10
45339;DHT22;31071;51.478;5.710;2023-02-28T16:02:54;8.10;48.80
45339;DHT22;31071;51.478;5.710;2023-02-28T16:05:30;9.10;49.80
45339;DHT22;31071;51.478;5.710;2023-02-28T16:07:59;8.20;50.60
45339;DHT22;31071;51.478;5.710;2023-02-28T16:10:31;8.40;50.30
45339;DHT22;31071;51.478;5.710;2023-02-28T16:12:57;8.00;49.50
45339;DHT22;31071;51.478;5.710;2023-02-28T16:15:29;9.80;51.70
45339;DHT22;31071;51.478;5.710;2023-02-28T16:17:57;8.50;50.70
45339;DHT22;31071;51.478;5.710;2023-02-28T16:20:31;9.80;51.40
45339;DHT22;31071;51.478;5.710;2023-02-28T16:22:57;7.50;51.90
45339;DHT22;31071;51.478;5.710;2023-02-28T16:25:37;9.80;53.50
45339;DHT22;31071;51.478;5.710;2023-02-28T16:28:04;9.10;52.60
45339;DHT22;31071;51.478;5.710;2023-02-28T16:30:33;8.70;52.50
45339;DHT22;31071;51.478;5.710;2023-02-28T16:32:59;6.40;52.30
45339;DHT22;31071;51.478;5.710;2023-02-28T16:35:25;7.50;53.30
45339;DHT22;31071;51.478;5.710;2023-02-28T16:37:51;6.90;52.60
45339;DHT22;31071;51.478;5.710;2023-02-28T16:40:20;6.80;53.20
45339;DHT22;31071;51.478;5.710;2023-02-28T16:42:48;6.80;52.40
45339;DHT22;31071;51.478;5.710;2023-02-28T16:45:20;6.70;54.20
45339;DHT22;31071;51.478;5.710;2023-02-28T16:47:47;6.60;53.30
45339;DHT22;31071;51.478;5.710;2023-02-28T16:50:18;6.80;55.00
45339;DHT22;31071;51.478;5.710;2023-02-28T16:52:44;6.50;54.50
45339;DHT22;31071;51.478;5.710;2023-02-28T16:55:10;6.40;54.50
45339;DHT22;31071;51.478;5.710;2023-02-28T16:57:36;6.30;55.70
45339;DHT22;31071;51.478;5.710;2023-02-28T17:00:04;6.30;55.80
45339;DHT22;31071;51.478;5.710;2023-02-28T17:02:30;6.20;56.60
45339;DHT22;31071;51.478;5.710;2023-02-28T17:04:55;7.60;57.90
45339;DHT22;31071;51.478;5.710;2023-02-28T17:07:21;6.40;56.90
45339;DHT22;31071;51.478;5.710;2023-02-28T17:09:46;5.90;57.60
45339;DHT22;31071;51.478;5.710;2023-02-28T17:12:13;5.90;57.10
45339;DHT22;31071;51.478;5.710;2023-02-28T17:14:39;5.70;58.50
45339;DHT22;31071;51.478;5.710;2023-02-28T17:17:06;5.60;59.40
45339;DHT22;31071;51.478;5.710;2023-02-28T17:19:31;5.50;59.30
45339;DHT22;31071;51.478;5.710;2023-02-28T17:21:58;4.20;59.00
45339;DHT22;31071;51.478;5.710;2023-02-28T17:24:24;5.30;59.30
45339;DHT22;31071;51.478;5.710;2023-02-28T17:26:49;5.30;59.40
45339;DHT22;31071;51.478;5.710;2023-02-28T17:29:18;5.20;60.40
45339;DHT22;31071;51.478;5.710;2023-02-28T17:31:43;5.10;60.70
45339;DHT22;31071;51.478;5.710;2023-02-28T17:34:09;5.10;61.20
45339;DHT22;31071;51.478;5.710;2023-02-28T17:36:35;4.90;61.30
45339;DHT22;31071;51.478;5.710;2023-02-28T17:39:03;4.90;62.30
45339;DHT22;31071;51.478;5.710;2023-02-28T17:41:29;4.70;62.00
45339;DHT22;31071;51.478;5.710;2023-02-28T17:43:56;6.20;63.00